createdAt,value
2018-05-07T00:02:14.402Z,6.17
2018-05-07T00:04:43.293Z,7.77
2018-05-07T00:07:12.167Z,8.97
2018-05-07T00:09:41.099Z,7.33
2018-05-07T00:12:09.995Z,9.07
2018-05-07T00:14:39.092Z,7.63
2018-05-07T00:17:08.072Z,6.67
2018-05-07T00:19:36.977Z,4.37
2018-05-07T00:22:05.980Z,6.67
2018-05-07T00:24:34.969Z,5.73
2018-05-07T00:27:03.856Z,6.17
2018-05-07T00:29:32.741Z,8.60
2018-05-07T00:32:01.664Z,5.83
2018-05-07T00:34:30.636Z,7.73
2018-05-07T00:36:59.637Z,7.23
2018-05-07T00:39:28.626Z,7.27
2018-05-07T00:41:57.497Z,5.67
2018-05-07T00:44:26.389Z,6.83
2018-05-07T00:46:55.391Z,6.30
2018-05-07T00:49:24.273Z,6.93
2018-05-07T00:51:53.170Z,6.27
2018-05-07T00:54:22.098Z,7.70
2018-05-07T00:56:51.044Z,7.90
2018-05-07T00:59:19.938Z,6.87
2018-05-07T01:01:48.868Z,6.30
2018-05-07T01:04:17.765Z,7.27
2018-05-07T01:06:46.721Z,7.50
2018-05-07T01:09:15.709Z,7.00
2018-05-07T01:11:44.595Z,10.17
2018-05-07T01:14:13.488Z,9.33
2018-05-07T01:16:42.479Z,6.57
2018-05-07T01:19:11.384Z,7.63
2018-05-07T01:21:40.268Z,6.43
2018-05-07T01:24:09.246Z,6.87
2018-05-07T01:26:38.249Z,5.93
2018-05-07T01:29:07.133Z,7.83
2018-05-07T01:31:36.077Z,6.23
2018-05-07T01:34:05.019Z,8.10
2018-05-07T01:36:33.901Z,7.60
2018-05-07T01:39:02.910Z,8.97
2018-05-07T01:41:31.827Z,5.63
2018-05-07T01:44:00.798Z,6.07
2018-05-07T01:46:29.738Z,7.30
2018-05-07T01:48:58.633Z,6.23
2018-05-07T01:51:27.518Z,5.60
2018-05-07T01:53:56.448Z,8.27
2018-05-07T01:56:25.315Z,8.50
2018-05-07T01:58:54.337Z,8.10
2018-05-07T02:01:23.279Z,6.50
2018-05-07T02:03:52.165Z,7.33
2018-05-07T02:06:21.207Z,7.87
2018-05-07T02:08:50.188Z,7.87
2018-05-07T02:11:19.188Z,7.03
2018-05-07T02:13:48.098Z,7.77
2018-05-07T02:16:17.028Z,7.80
2018-05-07T02:18:45.961Z,10.30
2018-05-07T02:21:14.841Z,5.47
2018-05-07T02:23:43.768Z,7.10
2018-05-07T02:26:12.639Z,6.17
2018-05-07T02:28:41.646Z,6.20
2018-05-07T02:31:10.618Z,8.57
2018-05-07T02:33:39.497Z,8.67
2018-05-07T02:36:08.378Z,9.90
2018-05-07T02:38:37.396Z,6.60
2018-05-07T02:41:06.270Z,8.53
2018-05-07T02:43:35.137Z,8.57
2018-05-07T02:46:04.059Z,8.27
2018-05-07T02:48:33.050Z,8.10
2018-05-07T02:51:01.932Z,9.00
2018-05-07T02:53:30.881Z,10.43
2018-05-07T02:55:59.748Z,8.43
2018-05-07T02:58:28.689Z,7.10
2018-05-07T03:00:57.592Z,8.57
2018-05-07T03:03:26.597Z,8.10
2018-05-07T03:05:55.576Z,11.57
2018-05-07T03:08:24.586Z,18.37
2018-05-07T03:10:53.476Z,21.37
2018-05-07T03:13:22.480Z,30.37
2018-05-07T03:15:51.418Z,31.63
2018-05-07T03:18:20.312Z,27.67
2018-05-07T03:20:49.185Z,31.67
2018-05-07T03:23:18.117Z,33.60
2018-05-07T03:25:47.030Z,36.43
2018-05-07T03:28:15.916Z,31.67
2018-05-07T03:30:44.922Z,22.87
2018-05-07T03:33:13.783Z,26.67
2018-05-07T03:35:42.786Z,29.27
2018-05-07T03:38:11.693Z,28.40
2018-05-07T03:40:40.601Z,27.23
2018-05-07T03:43:09.504Z,23.87
2018-05-07T03:45:38.426Z,26.93
2018-05-07T03:48:07.317Z,27.17
2018-05-07T03:50:36.336Z,33.30
2018-05-07T03:53:05.310Z,23.97
2018-05-07T03:55:34.190Z,24.30
2018-05-07T03:58:03.198Z,25.07
2018-05-07T04:00:32.134Z,20.63
2018-05-07T04:03:01.037Z,12.13
2018-05-07T04:05:29.942Z,19.47
2018-05-07T04:07:58.878Z,14.83
2018-05-07T04:10:27.746Z,11.87
2018-05-07T04:12:56.737Z,9.67
2018-05-07T04:15:25.687Z,12.77
2018-05-07T04:17:54.639Z,12.10
2018-05-07T04:20:23.517Z,11.37
2018-05-07T04:22:52.517Z,8.40
2018-05-07T04:25:21.389Z,9.93
2018-05-07T04:27:51.328Z,15.90
2018-05-07T04:30:20.247Z,16.10
2018-05-07T04:32:49.210Z,15.10
2018-05-07T04:35:18.104Z,18.30
2018-05-07T04:37:47.065Z,19.67
2018-05-07T04:40:15.957Z,15.60
2018-05-07T04:42:44.852Z,14.57
2018-05-07T04:45:13.844Z,16.83
2018-05-07T04:47:42.735Z,16.33
2018-05-07T04:50:11.726Z,13.93
2018-05-07T04:52:40.700Z,11.53
2018-05-07T04:55:09.584Z,11.17
2018-05-07T04:57:38.622Z,8.47
2018-05-07T05:00:07.739Z,12.97
2018-05-07T05:02:36.676Z,13.20
2018-05-07T05:05:06.599Z,10.60
2018-05-07T05:07:35.579Z,11.33
2018-05-07T05:10:04.608Z,8.17
2018-05-07T05:12:33.582Z,8.23
2018-05-07T05:15:02.576Z,7.73
2018-05-07T05:17:31.504Z,7.07
2018-05-07T05:20:00.463Z,7.37
2018-05-07T05:22:29.463Z,8.13
2018-05-07T05:24:58.459Z,6.53
2018-05-07T05:27:27.487Z,8.67
2018-05-07T05:29:56.437Z,8.17
2018-05-07T05:32:25.356Z,8.33
2018-05-07T05:34:54.252Z,7.57
2018-05-07T05:37:23.255Z,6.10
2018-05-07T05:39:52.123Z,7.07
2018-05-07T05:42:21.030Z,8.20
2018-05-07T05:44:49.997Z,11.50
2018-05-07T05:47:18.866Z,8.70
2018-05-07T05:49:47.735Z,6.97
2018-05-07T05:52:16.695Z,9.17
2018-05-07T05:54:45.622Z,9.20
2018-05-07T05:57:14.753Z,6.97
2018-05-07T05:59:43.705Z,6.83
2018-05-07T06:02:12.605Z,7.87
2018-05-07T06:04:41.501Z,11.93
2018-05-07T06:07:10.435Z,11.13
2018-05-07T06:09:39.378Z,8.23
2018-05-07T06:12:08.264Z,6.37
2018-05-07T06:14:37.456Z,6.97
2018-05-07T06:17:06.277Z,5.93
2018-05-07T06:19:35.195Z,7.90
2018-05-07T06:22:04.258Z,5.03
2018-05-07T06:24:33.159Z,6.93
2018-05-07T06:27:02.064Z,5.67
2018-05-07T06:29:31.023Z,5.93
2018-05-07T06:31:59.902Z,5.20
2018-05-07T06:34:32.988Z,5.73
2018-05-07T06:37:02.089Z,8.23
2018-05-07T06:39:31.006Z,8.03
2018-05-07T06:41:59.935Z,5.00
2018-05-07T06:44:28.959Z,6.90
2018-05-07T06:46:57.863Z,4.90
2018-05-07T06:49:26.743Z,5.60
2018-05-07T06:51:55.739Z,6.67
2018-05-07T06:54:24.676Z,7.20
2018-05-07T06:56:53.619Z,4.10
2018-05-07T06:59:22.547Z,4.17
2018-05-07T07:01:51.443Z,7.13
2018-05-07T07:04:20.337Z,8.03
2018-05-07T07:06:49.247Z,5.03
2018-05-07T07:09:18.168Z,5.03
2018-05-07T07:11:47.163Z,6.50
2018-05-07T07:14:16.084Z,4.30
2018-05-07T07:16:44.958Z,3.23
2018-05-07T07:19:13.867Z,4.37
2018-05-07T07:21:42.837Z,7.17
2018-05-07T07:24:11.764Z,3.60
2018-05-07T07:26:40.708Z,5.33
2018-05-07T07:29:09.657Z,3.67
2018-05-07T07:31:38.690Z,4.10
2018-05-07T07:34:07.645Z,4.17
2018-05-07T07:36:36.569Z,5.03
2018-05-07T07:39:05.491Z,5.03
2018-05-07T07:41:34.458Z,3.13
2018-05-07T07:44:03.410Z,2.83
2018-05-07T07:46:32.311Z,4.00
2018-05-07T07:49:01.197Z,4.03
2018-05-07T07:51:30.122Z,3.47
2018-05-07T07:53:59.055Z,2.73
2018-05-07T07:56:27.984Z,3.60
2018-05-07T07:58:56.896Z,4.60
2018-05-07T08:01:25.781Z,2.27
2018-05-07T08:03:54.782Z,4.13
2018-05-07T08:06:23.708Z,3.13
2018-05-07T08:08:52.786Z,4.00
2018-05-07T08:11:21.681Z,3.17
2018-05-07T08:13:50.625Z,3.17
2018-05-07T08:16:19.535Z,3.03
2018-05-07T08:18:48.426Z,4.87
2018-05-07T08:21:17.521Z,3.87
2018-05-07T08:23:46.422Z,4.10
2018-05-07T08:26:15.314Z,4.17
2018-05-07T08:28:44.301Z,5.13
2018-05-07T08:31:13.247Z,4.13
2018-05-07T08:33:42.175Z,2.43
2018-05-07T08:36:11.166Z,3.70
2018-05-07T08:38:40.053Z,3.30
2018-05-07T08:41:08.952Z,5.63
2018-05-07T08:43:37.884Z,7.33
2018-05-07T08:46:06.774Z,1.97
2018-05-07T08:48:35.690Z,3.30
2018-05-07T08:51:04.681Z,4.33
2018-05-07T08:53:33.525Z,3.43
2018-05-07T08:56:02.498Z,2.23
2018-05-07T08:58:31.455Z,3.53
2018-05-07T09:01:00.377Z,3.43
2018-05-07T09:03:29.406Z,2.43
2018-05-07T09:05:58.359Z,2.73
2018-05-07T09:08:27.285Z,6.07
2018-05-07T09:10:56.175Z,2.37
2018-05-07T09:13:25.080Z,2.67
2018-05-07T09:15:54.025Z,2.80
2018-05-07T09:18:22.926Z,2.57
2018-05-07T09:20:51.888Z,2.83
2018-05-07T09:23:20.844Z,6.03
2018-05-07T09:25:49.733Z,3.37
2018-05-07T09:28:18.717Z,3.03
2018-05-07T09:30:47.687Z,2.87
2018-05-07T09:33:16.605Z,1.93
2018-05-07T09:35:45.535Z,2.67
2018-05-07T09:38:14.447Z,4.03
2018-05-07T09:40:43.541Z,2.43
2018-05-07T09:43:12.597Z,3.53
2018-05-07T09:45:41.547Z,2.67
2018-05-07T09:48:10.435Z,3.13
2018-05-07T09:50:39.349Z,2.07
2018-05-07T09:53:08.245Z,3.77
2018-05-07T09:55:37.230Z,5.33
2018-05-07T09:58:06.090Z,2.97
2018-05-07T10:00:35.083Z,2.50
2018-05-07T10:03:04.000Z,3.20
2018-05-07T10:05:32.954Z,2.50
2018-05-07T10:08:01.845Z,1.80
2018-05-07T10:10:30.743Z,4.23
2018-05-07T10:12:59.847Z,2.77
2018-05-07T10:15:28.764Z,3.40
2018-05-07T10:17:57.698Z,5.10
2018-05-07T10:20:26.637Z,4.43
2018-05-07T10:22:55.575Z,1.70
2018-05-07T10:25:24.511Z,3.83
2018-05-07T10:30:28.815Z,3.17
2018-05-07T10:32:57.786Z,3.13
2018-05-07T10:35:26.800Z,3.13
2018-05-07T10:37:55.718Z,3.53
2018-05-07T10:40:24.680Z,2.90
2018-05-07T10:42:53.590Z,5.03
2018-05-07T10:45:22.604Z,2.10
2018-05-07T10:47:51.474Z,2.23
2018-05-07T10:50:20.449Z,3.03
2018-05-07T10:52:49.390Z,3.67
2018-05-07T10:55:18.555Z,3.40
2018-05-07T10:57:47.529Z,4.67
2018-05-07T11:00:16.432Z,4.17
2018-05-07T11:02:45.365Z,6.80
2018-05-07T11:05:14.278Z,4.97
2018-05-07T11:07:43.154Z,2.77
2018-05-07T11:10:12.198Z,2.23
2018-05-07T11:12:41.112Z,2.60
2018-05-07T11:15:09.987Z,2.83
2018-05-07T11:17:38.960Z,3.83
2018-05-07T11:20:07.846Z,4.67
2018-05-07T11:22:36.738Z,2.83
2018-05-07T11:25:05.668Z,3.60
2018-05-07T11:27:34.544Z,2.87
2018-05-07T11:30:03.513Z,2.40
2018-05-07T11:32:32.527Z,1.83
2018-05-07T11:35:01.441Z,3.40
2018-05-07T11:37:30.340Z,3.70
2018-05-07T11:39:59.344Z,2.90
2018-05-07T11:42:28.255Z,2.93
2018-05-07T11:44:57.130Z,4.73
2018-05-07T11:47:26.111Z,6.43
2018-05-07T11:49:55.039Z,3.97
2018-05-07T11:52:24.056Z,2.67
2018-05-07T11:54:53.023Z,1.60
2018-05-07T11:57:22.018Z,5.67
2018-05-07T11:59:50.906Z,1.60
2018-05-07T12:02:19.890Z,2.33
2018-05-07T12:04:48.789Z,3.07
2018-05-07T12:07:17.663Z,3.87
2018-05-07T12:09:46.775Z,4.93
2018-05-07T12:12:15.643Z,2.27
2018-05-07T12:14:44.525Z,4.50
2018-05-07T12:17:13.466Z,2.83
2018-05-07T12:19:42.351Z,2.97
2018-05-07T12:22:11.246Z,2.27
2018-05-07T12:24:40.219Z,2.23
2018-05-07T12:27:09.107Z,5.10
2018-05-07T12:29:38.016Z,3.60
2018-05-07T12:32:06.952Z,1.60
2018-05-07T12:34:35.826Z,1.83
2018-05-07T12:37:04.742Z,4.07
2018-05-07T12:39:33.669Z,2.93
2018-05-07T12:42:02.518Z,3.00
2018-05-07T12:44:31.407Z,4.67
2018-05-07T12:47:00.433Z,2.27
2018-05-07T12:49:29.328Z,3.07
2018-05-07T12:51:58.218Z,3.77
2018-05-07T12:54:27.162Z,2.63
2018-05-07T12:56:56.096Z,4.77
2018-05-07T12:59:25.001Z,3.10
2018-05-07T13:01:53.897Z,3.23
2018-05-07T13:04:22.777Z,2.93
2018-05-07T13:06:51.672Z,4.07
2018-05-07T13:09:20.668Z,3.20
2018-05-07T13:11:49.643Z,3.97
2018-05-07T13:14:18.527Z,1.80
2018-05-07T13:16:47.469Z,2.87
2018-05-07T13:19:16.418Z,2.53
2018-05-07T13:21:45.332Z,3.97
2018-05-07T13:24:14.303Z,3.20
2018-05-07T13:26:43.224Z,2.80
2018-05-07T13:29:12.178Z,2.23
2018-05-07T13:31:41.109Z,2.57
2018-05-07T13:34:10.032Z,3.13
2018-05-07T13:36:38.953Z,1.50
2018-05-07T13:39:07.892Z,7.37
2018-05-07T13:41:36.783Z,1.60
2018-05-07T13:44:05.723Z,2.70
2018-05-07T13:46:34.715Z,2.00
2018-05-07T13:49:03.710Z,1.93
2018-05-07T13:51:32.720Z,5.23
2018-05-07T13:54:01.645Z,2.33
2018-05-07T13:56:30.573Z,5.27
2018-05-07T13:58:59.504Z,4.40
2018-05-07T14:01:28.452Z,2.13
2018-05-07T14:03:57.357Z,2.10
2018-05-07T14:06:26.239Z,3.53
2018-05-07T14:08:55.200Z,1.67
2018-05-07T14:11:24.100Z,3.13
2018-05-07T14:13:52.995Z,2.30
2018-05-07T14:16:22.029Z,3.03
2018-05-07T14:18:50.957Z,1.67
2018-05-07T14:21:19.893Z,3.13
2018-05-07T14:23:48.914Z,2.50
2018-05-07T14:26:17.891Z,2.67
2018-05-07T14:28:46.750Z,2.70
2018-05-07T14:31:15.689Z,7.20
2018-05-07T14:33:44.677Z,5.10
2018-05-07T14:36:13.649Z,10.20
2018-05-07T14:38:42.655Z,9.37
2018-05-07T14:41:11.537Z,7.90
2018-05-07T14:43:40.521Z,7.90
2018-05-07T14:46:09.488Z,8.17
2018-05-07T14:48:38.405Z,13.20
2018-05-07T14:51:07.337Z,8.53
2018-05-07T14:53:36.308Z,24.43
2018-05-07T14:56:05.304Z,15.33
2018-05-07T14:58:34.222Z,8.80
2018-05-07T15:01:03.288Z,7.67
2018-05-07T15:03:32.207Z,10.33
2018-05-07T15:06:02.285Z,7.93
2018-05-07T15:08:31.267Z,7.43
2018-05-07T15:11:00.267Z,5.80
2018-05-07T15:13:29.261Z,4.60
2018-05-07T15:15:58.239Z,4.23
2018-05-07T15:18:27.132Z,3.73
2018-05-07T15:20:56.045Z,4.13
2018-05-07T15:23:25.062Z,3.10
2018-05-07T15:25:53.996Z,2.23
2018-05-07T15:28:22.905Z,6.30
2018-05-07T15:30:51.850Z,3.07
2018-05-07T15:33:20.775Z,3.13
2018-05-07T15:35:49.671Z,2.77
2018-05-07T15:38:18.686Z,2.40
2018-05-07T15:40:47.589Z,2.67
2018-05-07T15:43:16.498Z,2.23
2018-05-07T15:45:45.553Z,2.40
2018-05-07T15:48:14.549Z,2.93
2018-05-07T15:50:43.470Z,3.67
2018-05-07T15:53:12.512Z,2.50
2018-05-07T15:55:41.413Z,5.20
2018-05-07T15:58:10.419Z,3.07
2018-05-07T16:00:39.510Z,5.03
2018-05-07T16:03:08.617Z,3.77
2018-05-07T16:05:37.443Z,3.93
2018-05-07T16:08:06.489Z,6.83
2018-05-07T16:10:35.385Z,2.90
2018-05-07T16:13:04.351Z,5.00
2018-05-07T16:15:33.314Z,3.80
2018-05-07T16:18:02.199Z,3.47
2018-05-07T16:20:31.124Z,4.90
2018-05-07T16:23:00.135Z,3.40
2018-05-07T16:25:29.123Z,5.83
2018-05-07T16:27:58.090Z,6.10
2018-05-07T16:30:27.055Z,5.50
2018-05-07T16:32:55.945Z,3.60
2018-05-07T16:35:24.876Z,7.10
2018-05-07T16:37:53.829Z,2.10
2018-05-07T16:40:22.875Z,3.27
2018-05-07T16:42:51.911Z,3.67
2018-05-07T16:45:20.857Z,4.20
2018-05-07T16:47:49.785Z,2.30
2018-05-07T16:50:18.689Z,5.30
2018-05-07T16:52:47.733Z,3.87
2018-05-07T16:55:16.643Z,8.27
2018-05-07T16:57:45.629Z,2.63
2018-05-07T17:00:14.594Z,3.90
2018-05-07T17:02:43.538Z,4.70
2018-05-07T17:05:12.409Z,4.03
2018-05-07T17:07:41.359Z,5.07
2018-05-07T17:10:10.267Z,3.97
2018-05-07T17:12:39.254Z,4.53
2018-05-07T17:15:08.369Z,5.47
2018-05-07T17:17:37.362Z,3.40
2018-05-07T17:20:06.292Z,3.07
2018-05-07T17:22:35.254Z,2.13
2018-05-07T17:25:04.242Z,2.07
2018-05-07T17:27:33.215Z,4.93
2018-05-07T17:30:02.409Z,4.07
2018-05-07T17:32:31.237Z,3.93
2018-05-07T17:35:00.120Z,2.13
2018-05-07T17:37:29.982Z,4.17
2018-05-07T17:39:58.997Z,3.37
2018-05-07T17:42:28.065Z,3.97
2018-05-07T17:44:57.037Z,3.17
2018-05-07T17:47:25.934Z,4.93
2018-05-07T17:49:54.969Z,4.30
2018-05-07T17:52:23.919Z,6.67
2018-05-07T17:54:52.853Z,3.70
2018-05-07T17:57:21.840Z,3.13
2018-05-07T17:59:50.976Z,9.30
2018-05-07T18:02:20.040Z,6.53
2018-05-07T18:04:48.950Z,6.03
2018-05-07T18:07:18.031Z,3.77
2018-05-07T18:09:46.997Z,5.53
2018-05-07T18:12:16.004Z,5.37
2018-05-07T18:14:45.106Z,4.63
2018-05-07T18:17:14.028Z,6.77
2018-05-07T18:19:42.983Z,6.57
2018-05-07T18:22:11.984Z,5.47
2018-05-07T18:24:41.092Z,7.73
2018-05-07T18:27:09.842Z,5.80
2018-05-07T18:29:38.819Z,11.23
2018-05-07T18:32:07.851Z,7.87
2018-05-07T18:34:36.834Z,9.20
2018-05-07T18:37:05.814Z,8.90
2018-05-07T18:39:34.738Z,7.30
2018-05-07T18:42:03.719Z,6.40
2018-05-07T18:44:32.699Z,5.63
2018-05-07T18:47:01.599Z,5.17
2018-05-07T18:49:30.496Z,7.53
2018-05-07T18:51:59.448Z,6.30
2018-05-07T18:54:28.350Z,5.10
2018-05-07T18:56:57.266Z,5.43
2018-05-07T18:59:26.282Z,4.93
2018-05-07T19:01:55.204Z,5.83
2018-05-07T19:04:24.118Z,8.60
2018-05-07T19:06:53.153Z,4.90
2018-05-07T19:09:22.220Z,6.30
2018-05-07T19:11:51.228Z,6.30
2018-05-07T19:14:20.269Z,5.57
2018-05-07T19:16:49.209Z,5.03
2018-05-07T19:19:18.194Z,7.10
2018-05-07T19:21:47.155Z,5.90
2018-05-07T19:24:16.055Z,5.63
2018-05-07T19:26:44.964Z,6.83
2018-05-07T19:29:13.938Z,6.03
2018-05-07T19:31:42.845Z,4.57
2018-05-07T19:34:11.842Z,4.30
2018-05-07T19:36:40.930Z,5.20
2018-05-07T19:39:09.838Z,6.20
2018-05-07T19:41:38.811Z,5.30
2018-05-07T19:44:07.785Z,4.53
2018-05-07T19:46:36.799Z,3.80
2018-05-07T19:49:05.713Z,3.33
2018-05-07T19:51:34.659Z,6.73
2018-05-07T19:54:03.580Z,6.70
2018-05-07T19:56:32.504Z,6.93
2018-05-07T19:59:01.551Z,7.13
2018-05-07T20:01:30.530Z,9.20
2018-05-07T20:03:59.483Z,7.77
2018-05-07T20:06:28.418Z,5.40
2018-05-07T20:08:57.344Z,7.13
2018-05-07T20:11:26.234Z,6.40
2018-05-07T20:13:56.231Z,4.27
2018-05-07T20:16:25.136Z,8.63
2018-05-07T20:18:54.109Z,7.10
2018-05-07T20:21:23.218Z,5.47
2018-05-07T20:23:52.118Z,5.90
2018-05-07T20:26:21.070Z,5.00
2018-05-07T20:28:50.091Z,6.37
2018-05-07T20:31:19.031Z,6.13
2018-05-07T20:33:47.928Z,6.57
2018-05-07T20:36:16.966Z,5.67
2018-05-07T20:38:45.879Z,5.53
2018-05-07T20:41:14.820Z,5.30
2018-05-07T20:43:43.832Z,6.47
2018-05-07T20:46:12.719Z,6.13
2018-05-07T20:48:41.720Z,7.17
2018-05-07T20:51:10.697Z,7.10
2018-05-07T20:53:39.700Z,7.00
2018-05-07T20:56:08.699Z,9.47
2018-05-07T20:58:37.782Z,9.33
2018-05-07T21:01:06.770Z,8.20
2018-05-07T21:03:35.758Z,6.57
2018-05-07T21:06:04.699Z,7.53
2018-05-07T21:08:33.635Z,8.33
2018-05-07T21:11:02.649Z,6.63
2018-05-07T21:13:31.591Z,8.03
2018-05-07T21:16:00.495Z,6.57
2018-05-07T21:18:29.359Z,7.97
2018-05-07T21:20:58.289Z,5.77
2018-05-07T21:23:27.299Z,8.70
2018-05-07T21:25:56.272Z,6.83
2018-05-07T21:28:25.212Z,8.03
2018-05-07T21:30:54.184Z,9.47
2018-05-07T21:33:23.076Z,8.77
2018-05-07T21:35:52.232Z,5.33
2018-05-07T21:38:21.140Z,7.07
2018-05-07T21:40:50.035Z,9.30
2018-05-07T21:43:18.987Z,5.43
2018-05-07T21:45:47.902Z,6.40
2018-05-07T21:48:16.917Z,5.70
2018-05-07T21:50:45.888Z,6.53
2018-05-07T21:53:14.783Z,7.07
2018-05-07T21:55:43.776Z,7.03
2018-05-07T21:58:12.764Z,7.47
2018-05-07T22:00:41.774Z,10.27
2018-05-07T22:03:10.658Z,8.93
2018-05-07T22:05:39.653Z,6.03
2018-05-07T22:08:08.577Z,8.00
2018-05-07T22:10:37.456Z,5.60
2018-05-07T22:13:06.387Z,4.63
2018-05-07T22:15:35.284Z,5.67
2018-05-07T22:18:04.295Z,6.90
2018-05-07T22:20:33.230Z,6.13
2018-05-07T22:23:02.197Z,7.43
2018-05-07T22:25:31.205Z,5.37
2018-05-07T22:28:00.171Z,5.50
2018-05-07T22:30:29.074Z,5.73
2018-05-07T22:32:58.052Z,5.40
2018-05-07T22:35:26.957Z,6.57
2018-05-07T22:37:55.836Z,6.67
2018-05-07T22:40:24.746Z,8.80
2018-05-07T22:42:53.675Z,6.70
2018-05-07T22:45:22.555Z,4.63
2018-05-07T22:47:51.497Z,7.57
2018-05-07T22:50:20.485Z,5.97
2018-05-07T22:52:49.495Z,6.27
2018-05-07T22:55:18.390Z,4.40
2018-05-07T22:57:47.318Z,3.90
2018-05-07T23:00:16.247Z,6.27
2018-05-07T23:02:45.132Z,5.53
2018-05-07T23:05:14.083Z,4.73
2018-05-07T23:07:42.988Z,5.97
2018-05-07T23:10:11.913Z,5.40
2018-05-07T23:12:40.905Z,4.57
2018-05-07T23:15:09.899Z,7.40
2018-05-07T23:17:38.765Z,5.50
2018-05-07T23:20:07.797Z,6.57
2018-05-07T23:22:36.691Z,5.63
2018-05-07T23:25:05.588Z,6.30
2018-05-07T23:27:34.554Z,4.87
2018-05-07T23:30:03.546Z,7.90
2018-05-07T23:32:32.421Z,6.30
2018-05-07T23:35:01.428Z,7.40
2018-05-07T23:37:30.291Z,6.50
2018-05-07T23:39:59.165Z,4.60
2018-05-07T23:42:28.211Z,6.13
2018-05-07T23:44:57.197Z,8.00
2018-05-07T23:47:26.187Z,4.33
2018-05-07T23:49:55.169Z,6.07
2018-05-07T23:52:24.054Z,5.80
2018-05-07T23:54:52.935Z,5.67
2018-05-07T23:57:21.957Z,5.00
2018-05-07T23:59:50.838Z,5.63
